Time;durP1;ratioP1;P1;durP2;ratioP2;P2;SDS_P1;SDS_P2;PMS_P1;PMS_P2;Temp;Humidity;BMP_temperature;BMP_pressure;BME280_temperature;BME280_humidity;BME280_pressure;Samples;Min_cycle;Max_cycle;Signal;HPM_P1;HPM_P2
2022/03/07 00:00:44;;;;;;;;;;;17.30;40.90;;;;;;5048858;28;43534;-85
2022/03/07 00:03:10;;;;;;;;;;;17.30;40.50;;;;;;5043203;28;42994;-89
2022/03/07 00:05:36;;;;;;;;;;;;;;;;;;5043408;28;43125;-85
2022/03/07 00:08:01;;;;;;;;;;;17.30;40.60;;;;;;5059168;28;42752;-82
2022/03/07 00:10:27;;;;;;;;;;;17.30;41.10;;;;;;5068399;28;42894;-83
2022/03/07 00:12:52;;;;;;;;;;;17.30;40.50;;;;;;5049851;28;42834;-81
2022/03/07 00:15:19;;;;;;;;;;;17.40;41.20;;;;;;5048149;28;42840;-89
2022/03/07 00:17:44;;;;;;;;;;;17.30;40.60;;;;;;5046699;28;42984;-88
2022/03/07 00:20:10;;;;;;;;;;;17.30;41.10;;;;;;5044271;28;43923;-88
2022/03/07 00:22:36;;;;;;;;;;;17.30;41.10;;;;;;5043198;28;43036;-87
2022/03/07 00:25:01;;;;;;;;;;;17.30;41.10;;;;;;5043323;28;43210;-89
2022/03/07 00:27:27;;;;;;;;;;;17.30;41.20;;;;;;5043193;28;42975;-89
2022/03/07 00:29:52;;;;;;;;;;;17.30;40.60;;;;;;5042518;28;43044;-89
2022/03/07 00:32:18;;;;;;;;;;;17.30;40.70;;;;;;5042849;28;43154;-89
2022/03/07 00:34:43;;;;;;;;;;;17.40;40.80;;;;;;5042960;28;43983;-87
2022/03/07 00:37:09;;;;;;;;;;;17.40;41.30;;;;;;5042970;28;43113;-89
2022/03/07 00:39:35;;;;;;;;;;;17.40;41.30;;;;;;5023397;28;43446;-88
2022/03/07 00:42:00;;;;;;;;;;;17.40;41.20;;;;;;5023320;28;42975;-89
2022/03/07 00:44:26;;;;;;;;;;;17.30;40.70;;;;;;5042174;28;44038;-88
2022/03/07 00:46:51;;;;;;;;;;;17.40;41.30;;;;;;5024511;28;43646;-88
2022/03/07 00:49:17;;;;;;;;;;;17.40;41.30;;;;;;5023718;28;43011;-88
2022/03/07 00:51:42;;;;;;;;;;;17.40;41.20;;;;;;5023680;28;43003;-89
2022/03/07 00:54:08;;;;;;;;;;;17.40;41.40;;;;;;5023202;28;43730;-89
2022/03/07 00:56:33;;;;;;;;;;;17.40;41.50;;;;;;5022968;28;42973;-88
2022/03/07 00:58:59;;;;;;;;;;;17.40;41.60;;;;;;5039617;28;42970;-89
2022/03/07 01:01:24;;;;;;;;;;;17.40;41.70;;;;;;5063041;28;43025;-89
2022/03/07 01:03:50;;;;;;;;;;;17.40;41.20;;;;;;5062868;28;43462;-87
2022/03/07 01:06:15;;;;;;;;;;;17.40;41.20;;;;;;5063656;28;43065;-84
2022/03/07 01:08:41;;;;;;;;;;;17.40;41.30;;;;;;5063852;28;43890;-89
2022/03/07 01:11:06;;;;;;;;;;;17.40;41.40;;;;;;5063356;28;43310;-89
2022/03/07 01:13:32;;;;;;;;;;;17.40;42.00;;;;;;5063712;28;43285;-88
2022/03/07 01:15:57;;;;;;;;;;;17.40;41.70;;;;;;5063374;28;43224;-89
2022/03/07 01:18:23;;;;;;;;;;;17.40;42.40;;;;;;5063981;28;43409;-89
2022/03/07 01:20:48;;;;;;;;;;;17.40;42.50;;;;;;5030090;28;43053;-84
2022/03/07 01:23:14;;;;;;;;;;;17.40;42.10;;;;;;5026578;28;43437;-88
2022/03/07 01:25:40;;;;;;;;;;;17.40;42.30;;;;;;5027006;28;43006;-88
2022/03/07 01:28:06;;;;;;;;;;;17.40;42.90;;;;;;5040128;28;43070;-87
2022/03/07 01:30:31;;;;;;;;;;;17.40;42.50;;;;;;5046157;28;42969;-86
2022/03/07 01:32:57;;;;;;;;;;;17.40;43.20;;;;;;5046426;28;43099;-87
2022/03/07 01:35:23;;;;;;;;;;;17.40;42.80;;;;;;5045171;28;42997;-85
2022/03/07 01:37:48;;;;;;;;;;;17.40;42.80;;;;;;5047746;28;43660;-78
2022/03/07 01:40:14;;;;;;;;;;;17.40;42.90;;;;;;5066643;28;42922;-87
2022/03/07 01:42:40;;;;;;;;;;;17.50;43.40;;;;;;5051382;28;43021;-86
2022/03/07 01:45:09;;;;;;;;;;;17.40;43.40;;;;;;5045249;28;42901;-85
2022/03/07 01:47:34;;;;;;;;;;;17.40;43.90;;;;;;5025920;28;42967;-88
2022/03/07 01:50:00;;;;;;;;;;;17.40;43.50;;;;;;5039833;28;43094;-87
2022/03/07 01:52:26;;;;;;;;;;;17.40;43.10;;;;;;5046323;28;43695;-86
2022/03/07 01:54:52;;;;;;;;;;;17.40;43.20;;;;;;5050801;28;42900;-86
2022/03/07 01:57:18;;;;;;;;;;;17.40;43.20;;;;;;5045497;28;42972;-86
2022/03/07 01:59:44;;;;;;;;;;;17.40;43.80;;;;;;5045531;28;43274;-86
2022/03/07 02:02:09;;;;;;;;;;;17.50;43.80;;;;;;5045889;28;43793;-86
2022/03/07 02:04:38;;;;;;;;;;;17.50;43.30;;;;;;5046549;28;43035;-87
2022/03/07 02:07:03;;;;;;;;;;;17.40;43.70;;;;;;5046390;28;43461;-86
2022/03/07 02:09:29;;;;;;;;;;;17.40;43.30;;;;;;5046015;28;43029;-86
2022/03/07 02:11:54;;;;;;;;;;;17.50;43.80;;;;;;5065920;28;42958;-86
2022/03/07 02:14:22;;;;;;;;;;;17.40;43.80;;;;;;5066540;28;43039;-85
2022/03/07 02:16:48;;;;;;;;;;;17.40;43.60;;;;;;5066511;28;43750;-85
2022/03/07 02:19:14;;;;;;;;;;;17.50;44.20;;;;;;5054903;28;42930;-86
2022/03/07 02:21:46;;;;;;;;;;;17.50;43.70;;;;;;5045934;28;43720;-85
2022/03/07 02:24:12;;;;;;;;;;;17.50;44.10;;;;;;5045404;28;42981;-85
2022/03/07 02:26:38;;;;;;;;;;;17.40;43.80;;;;;;5045834;28;42879;-85
2022/03/07 02:29:03;;;;;;;;;;;17.50;44.30;;;;;;5046569;28;43274;-86
2022/03/07 02:31:29;;;;;;;;;;;17.40;44.10;;;;;;5044672;28;43522;-86
2022/03/07 02:33:55;;;;;;;;;;;17.50;43.70;;;;;;5061365;28;43152;-86
2022/03/07 02:36:21;;;;;;;;;;;17.40;43.60;;;;;;5045202;28;43017;-86
2022/03/07 02:38:46;;;;;;;;;;;17.40;43.60;;;;;;5044431;28;42997;-85
2022/03/07 02:41:12;;;;;;;;;;;17.50;44.20;;;;;;5044813;28;43030;-84
2022/03/07 02:43:37;;;;;;;;;;;17.40;44.20;;;;;;5044726;28;43039;-85
2022/03/07 02:46:04;;;;;;;;;;;17.40;44.20;;;;;;5056276;28;43197;-84
2022/03/07 02:48:29;;;;;;;;;;;17.40;44.10;;;;;;5045271;28;43322;-86
2022/03/07 02:50:58;;;;;;;;;;;17.40;43.80;;;;;;5044974;28;43486;-86
2022/03/07 02:53:24;;;;;;;;;;;17.40;43.70;;;;;;5045071;28;42850;-85
2022/03/07 02:55:50;;;;;;;;;;;17.50;44.20;;;;;;5067122;28;42592;-76
2022/03/07 02:58:16;;;;;;;;;;;17.40;43.60;;;;;;5062740;28;42863;-86
2022/03/07 03:00:41;;;;;;;;;;;17.50;44.10;;;;;;5045589;28;42837;-85
2022/03/07 03:03:07;;;;;;;;;;;17.40;43.50;;;;;;5062075;28;43133;-85
2022/03/07 03:05:32;;;;;;;;;;;17.50;44.00;;;;;;5046833;28;42871;-83
2022/03/07 03:07:58;;;;;;;;;;;17.50;44.10;;;;;;5045227;28;43058;-86
2022/03/07 03:10:23;;;;;;;;;;;17.40;44.00;;;;;;5045126;28;43501;-87
2022/03/07 03:12:49;;;;;;;;;;;17.50;43.60;;;;;;5044924;28;43008;-87
2022/03/07 03:15:15;;;;;;;;;;;17.50;44.20;;;;;;5044377;28;43464;-85
2022/03/07 03:17:41;;;;;;;;;;;17.50;44.00;;;;;;5044249;28;42874;-86
2022/03/07 03:20:08;;;;;;;;;;;17.50;44.10;;;;;;5044391;28;42750;-87
2022/03/07 03:22:34;;;;;;;;;;;17.50;44.00;;;;;;5044532;28;42915;-85
2022/03/07 03:24:59;;;;;;;;;;;17.40;43.50;;;;;;5044685;28;42964;-86
2022/03/07 03:27:25;;;;;;;;;;;17.50;44.00;;;;;;5044621;28;42947;-84
2022/03/07 03:29:50;;;;;;;;;;;17.50;44.00;;;;;;5044333;28;43548;-85
2022/03/07 03:32:17;;;;;;;;;;;17.50;44.10;;;;;;5044720;28;43118;-84
2022/03/07 03:34:42;;;;;;;;;;;17.50;43.90;;;;;;5044492;28;43573;-86
2022/03/07 03:37:08;;;;;;;;;;;17.50;43.50;;;;;;5045055;28;42970;-85
2022/03/07 03:39:33;;;;;;;;;;;17.50;43.40;;;;;;5044910;28;43702;-85
2022/03/07 03:41:59;;;;;;;;;;;17.50;43.30;;;;;;5044588;28;43027;-86
2022/03/07 03:44:25;;;;;;;;;;;17.50;43.30;;;;;;5044428;28;42908;-85
2022/03/07 03:46:50;;;;;;;;;;;17.50;43.30;;;;;;5044352;28;42932;-85
2022/03/07 03:49:16;;;;;;;;;;;17.50;43.30;;;;;;5043806;28;44467;-86
2022/03/07 03:51:42;;;;;;;;;;;17.50;43.80;;;;;;5043803;28;42875;-85
2022/03/07 03:54:07;;;;;;;;;;;17.50;43.80;;;;;;5042327;28;42908;-85
2022/03/07 03:56:33;;;;;;;;;;;17.50;43.70;;;;;;5043624;28;43229;-86
2022/03/07 03:58:59;;;;;;;;;;;17.50;43.70;;;;;;5043787;28;43987;-86
2022/03/07 04:01:24;;;;;;;;;;;17.50;43.70;;;;;;5043124;28;43061;-86
2022/03/07 04:03:50;;;;;;;;;;;17.50;43.60;;;;;;5043866;28;43588;-86
2022/03/07 04:06:15;;;;;;;;;;;17.50;43.20;;;;;;5042360;28;43290;-84
2022/03/07 04:08:41;;;;;;;;;;;17.40;43.10;;;;;;5034160;28;43298;-83
2022/03/07 04:11:06;;;;;;;;;;;17.50;43.70;;;;;;5058097;28;42955;-82
2022/03/07 04:13:32;;;;;;;;;;;17.50;43.20;;;;;;5043134;28;43710;-83
2022/03/07 04:15:57;;;;;;;;;;;17.50;43.20;;;;;;5042632;28;42888;-82
2022/03/07 04:18:23;;;;;;;;;;;17.50;43.70;;;;;;5044615;28;43253;-83
2022/03/07 04:20:48;;;;;;;;;;;17.50;43.20;;;;;;5042710;28;42941;-84
2022/03/07 04:23:20;;;;;;;;;;;17.50;43.90;;;;;;5043747;28;43038;-80
2022/03/07 04:25:46;;;;;;;;;;;17.50;43.50;;;;;;5044330;28;42914;-84
2022/03/07 04:28:13;;;;;;;;;;;17.50;44.00;;;;;;5044344;28;42919;-81
2022/03/07 04:30:38;;;;;;;;;;;17.50;43.50;;;;;;5045601;28;43122;-85
2022/03/07 04:33:04;;;;;;;;;;;17.50;43.50;;;;;;5044192;28;43730;-88
2022/03/07 04:35:29;;;;;;;;;;;17.50;43.50;;;;;;5043030;28;42900;-85
2022/03/07 04:37:55;;;;;;;;;;;17.50;43.50;;;;;;5043061;28;42984;-85
2022/03/07 04:40:20;;;;;;;;;;;17.50;44.00;;;;;;5044679;28;42969;-85
2022/03/07 04:42:46;;;;;;;;;;;17.50;44.10;;;;;;5045090;28;43349;-83
2022/03/07 04:45:12;;;;;;;;;;;17.50;44.10;;;;;;5055412;28;43145;-79
2022/03/07 04:47:38;;;;;;;;;;;17.50;44.10;;;;;;5063318;28;43328;-78
2022/03/07 04:50:04;;;;;;;;;;;17.50;44.20;;;;;;5063138;28;42938;-84
2022/03/07 04:52:30;;;;;;;;;;;17.50;44.30;;;;;;5063254;28;42969;-86
2022/03/07 04:54:55;;;;;;;;;;;17.50;43.80;;;;;;5066258;28;42859;-85
2022/03/07 04:57:21;;;;;;;;;;;19.30;44.60;;;;;;5067407;28;44186;-78
2022/03/07 04:59:46;;;;;;;;;;;17.50;43.70;;;;;;5067232;28;43149;-85
2022/03/07 05:02:13;;;;;;;;;;;17.50;44.20;;;;;;5067609;28;43068;-79
2022/03/07 05:04:39;;;;;;;;;;;17.50;43.70;;;;;;5067323;28;42991;-82
2022/03/07 05:07:05;;;;;;;;;;;17.50;44.10;;;;;;5066883;28;42907;-81
2022/03/07 05:09:31;;;;;;;;;;;17.50;44.20;;;;;;5066893;28;42942;-81
2022/03/07 05:11:57;;;;;;;;;;;17.50;44.20;;;;;;5066977;28;42991;-85
2022/03/07 05:14:22;;;;;;;;;;;17.50;44.30;;;;;;5067222;28;42996;-78
2022/03/07 05:16:48;;;;;;;;;;;17.50;44.20;;;;;;5056053;28;43069;-84
2022/03/07 05:19:13;;;;;;;;;;;17.70;44.30;;;;;;5046874;28;43026;-84
2022/03/07 05:21:39;;;;;;;;;;;17.50;44.10;;;;;;5046378;28;43217;-81
2022/03/07 05:24:05;;;;;;;;;;;17.50;43.70;;;;;;5046119;28;43089;-84
2022/03/07 05:26:31;;;;;;;;;;;17.50;44.30;;;;;;5046049;28;44302;-84
2022/03/07 05:28:56;;;;;;;;;;;17.50;43.70;;;;;;5046312;28;42943;-85
2022/03/07 05:31:22;;;;;;;;;;;17.40;43.70;;;;;;5041700;28;43654;-88
2022/03/07 05:33:48;;;;;;;;;;;17.40;43.60;;;;;;5045165;28;43632;-88
2022/03/07 05:36:13;;;;;;;;;;;17.50;43.70;;;;;;5045727;28;42910;-81
2022/03/07 05:38:39;;;;;;;;;;;17.50;43.70;;;;;;5046281;28;42903;-79
2022/03/07 05:41:04;;;;;;;;;;;17.50;44.10;;;;;;5061858;28;43314;-79
2022/03/07 05:43:30;;;;;;;;;;;17.50;44.20;;;;;;5063601;28;43076;-81
2022/03/07 05:45:55;;;;;;;;;;;17.50;43.80;;;;;;5073128;28;42961;-83
2022/03/07 05:48:21;;;;;;;;;;;17.50;44.20;;;;;;5061858;28;43048;-85
2022/03/07 05:50:47;;;;;;;;;;;17.50;44.10;;;;;;5031227;28;43390;-87
2022/03/07 05:53:12;;;;;;;;;;;17.50;44.00;;;;;;5044804;28;42982;-84
2022/03/07 05:55:38;;;;;;;;;;;17.40;43.40;;;;;;5037634;28;43479;-86
2022/03/07 05:58:03;;;;;;;;;;;17.50;43.80;;;;;;5040084;28;43174;-82
2022/03/07 06:00:29;;;;;;;;;;;17.50;44.20;;;;;;5044485;28;43942;-83
2022/03/07 06:02:55;;;;;;;;;;;17.50;43.50;;;;;;5044572;28;43069;-81
2022/03/07 06:05:21;;;;;;;;;;;17.50;43.50;;;;;;5036248;28;43554;-84
2022/03/07 06:07:46;;;;;;;;;;;17.50;43.50;;;;;;5042895;28;42816;-86
2022/03/07 06:10:12;;;;;;;;;;;17.50;43.50;;;;;;5032978;28;43405;-86
2022/03/07 06:12:38;;;;;;;;;;;17.50;43.70;;;;;;5044942;28;42938;-87
2022/03/07 06:15:04;;;;;;;;;;;17.50;43.20;;;;;;5044397;28;42972;-86
2022/03/07 06:17:31;;;;;;;;;;;17.50;43.20;;;;;;5045320;28;43152;-84
2022/03/07 06:19:56;;;;;;;;;;;17.40;43.10;;;;;;5039778;28;43526;-85
2022/03/07 06:22:22;;;;;;;;;;;17.50;43.70;;;;;;5044198;28;43128;-79
2022/03/07 06:24:47;;;;;;;;;;;17.40;41.20;;;;;;5045383;28;44830;-84
2022/03/07 06:27:13;;;;;;;;;;;17.40;40.30;;;;;;5046199;28;42872;-85
2022/03/07 06:29:39;;;;;;;;;;;17.40;40.80;;;;;;5045698;28;42977;-85
2022/03/07 06:32:04;;;;;;;;;;;17.30;41.60;;;;;;5045972;28;42907;-84
2022/03/07 06:34:33;;;;;;;;;;;17.40;42.60;;;;;;5044246;28;44662;-81
2022/03/07 06:36:59;;;;;;;;;;;17.40;41.40;;;;;;5044960;28;43259;-82
2022/03/07 06:39:26;;;;;;;;;;;17.40;40.10;;;;;;5045040;28;43815;-81
2022/03/07 06:41:53;;;;;;;;;;;17.30;41.50;;;;;;5044957;28;43491;-87
2022/03/07 06:44:18;;;;;;;;;;;17.30;41.00;;;;;;5045780;28;43488;-81
2022/03/07 06:46:44;;;;;;;;;;;17.30;39.10;;;;;;5045938;28;42944;-81
2022/03/07 06:49:10;;;;;;;;;;;17.20;38.00;;;;;;5045459;28;43496;-85
2022/03/07 06:51:35;;;;;;;;;;;17.30;41.50;;;;;;5045452;28;42911;-81
2022/03/07 06:54:01;;;;;;;;;;;17.30;39.30;;;;;;5044647;28;43046;-83
2022/03/07 06:56:26;;;;;;;;;;;17.30;38.90;;;;;;5046470;28;42953;-78
2022/03/07 06:58:52;;;;;;;;;;;17.30;38.10;;;;;;5046692;28;42990;-85
2022/03/07 07:01:18;;;;;;;;;;;17.30;39.80;;;;;;5045214;28;43341;-82
2022/03/07 07:03:43;;;;;;;;;;;17.30;38.60;;;;;;5045329;28;42911;-86
2022/03/07 07:06:09;;;;;;;;;;;17.30;39.00;;;;;;5045762;28;42850;-79
2022/03/07 07:08:34;;;;;;;;;;;17.30;40.30;;;;;;5045190;28;43356;-84
2022/03/07 07:11:00;;;;;;;;;;;17.30;38.50;;;;;;5045085;28;43226;-84
2022/03/07 07:13:25;;;;;;;;;;;17.30;39.40;;;;;;5045573;28;43597;-82
2022/03/07 07:15:55;;;;;;;;;;;17.30;39.50;;;;;;5045144;28;43070;-85
2022/03/07 07:18:21;;;;;;;;;;;17.40;40.10;;;;;;5044386;28;42947;-86
2022/03/07 07:20:47;;;;;;;;;;;17.30;40.00;;;;;;5044270;28;43129;-79
2022/03/07 07:23:12;;;;;;;;;;;17.30;39.70;;;;;;5044525;28;43449;-83
2022/03/07 07:25:37;;;;;;;;;;;17.30;39.80;;;;;;5042660;28;42983;-85
2022/03/07 07:28:03;;;;;;;;;;;17.30;39.80;;;;;;5044091;28;43086;-84
2022/03/07 07:30:29;;;;;;;;;;;17.30;39.20;;;;;;5044305;28;42967;-85
2022/03/07 07:32:54;;;;;;;;;;;17.30;39.70;;;;;;5044977;28;42994;-85
2022/03/07 07:35:20;;;;;;;;;;;17.20;38.90;;;;;;5045282;28;42960;-85
2022/03/07 07:37:45;;;;;;;;;;;17.20;39.00;;;;;;5044153;28;43088;-78
2022/03/07 07:40:11;;;;;;;;;;;17.30;39.80;;;;;;5043883;28;43010;-86
2022/03/07 07:42:36;;;;;;;;;;;17.30;40.30;;;;;;5044194;28;44582;-78
2022/03/07 07:45:02;;;;;;;;;;;17.20;41.00;;;;;;5044736;28;43020;-84
2022/03/07 07:47:28;;;;;;;;;;;17.20;39.50;;;;;;5044018;28;42923;-80
2022/03/07 07:49:53;;;;;;;;;;;17.30;40.10;;;;;;5044296;28;42923;-86
2022/03/07 07:52:19;;;;;;;;;;;17.30;41.30;;;;;;5044328;28;43527;-87
2022/03/07 07:54:44;;;;;;;;;;;17.30;40.50;;;;;;5044490;28;42943;-84
2022/03/07 07:57:12;;;;;;;;;;;17.30;41.50;;;;;;5043263;28;64330;-78
2022/03/07 07:59:38;;;;;;;;;;;17.30;43.80;;;;;;5043291;28;42970;-77
2022/03/07 08:02:04;;;;;;;;;;;17.30;43.70;;;;;;5043949;28;42970;-85
2022/03/07 08:04:29;;;;;;;;;;;17.30;41.20;;;;;;5044303;28;42863;-75
2022/03/07 08:06:55;;;;;;;;;;;17.30;43.80;;;;;;5044507;28;42958;-77
2022/03/07 08:09:20;;;;;;;;;;;17.30;41.40;;;;;;5044313;28;43009;-84
2022/03/07 08:11:46;;;;;;;;;;;17.30;40.20;;;;;;5044029;28;43665;-85
2022/03/07 08:14:11;;;;;;;;;;;17.30;44.50;;;;;;5045069;28;42869;-84
2022/03/07 08:16:37;;;;;;;;;;;17.30;42.80;;;;;;5044159;28;42863;-76
2022/03/07 08:19:03;;;;;;;;;;;17.30;41.60;;;;;;5044664;28;42978;-77
2022/03/07 08:21:28;;;;;;;;;;;16.00;28.70;;;;;;5042680;28;43728;-77
2022/03/07 08:23:54;;;;;;;;;;;15.60;29.50;;;;;;5044212;28;43098;-77
2022/03/07 08:26:20;;;;;;;;;;;15.30;29.70;;;;;;5047755;28;42867;-78
2022/03/07 08:28:46;;;;;;;;;;;15.30;30.80;;;;;;5044673;28;43002;-77
2022/03/07 08:31:11;;;;;;;;;;;15.40;30.40;;;;;;5043866;28;43476;-77
2022/03/07 08:33:37;;;;;;;;;;;15.50;30.10;;;;;;5043979;28;43086;-76
2022/03/07 08:36:03;;;;;;;;;;;15.40;30.00;;;;;;5042431;28;43506;-77
2022/03/07 08:38:28;;;;;;;;;;;15.50;30.30;;;;;;5043195;28;43667;-77
2022/03/07 08:40:54;;;;;;;;;;;15.50;29.90;;;;;;5042944;28;42910;-78
2022/03/07 08:43:20;;;;;;;;;;;15.40;30.00;;;;;;5043369;28;43053;-77
2022/03/07 08:45:45;;;;;;;;;;;15.40;29.90;;;;;;5043539;28;43820;-78
2022/03/07 08:48:11;;;;;;;;;;;15.50;29.80;;;;;;5043552;28;42903;-78
2022/03/07 08:50:36;;;;;;;;;;;15.50;29.80;;;;;;5043501;28;42890;-77
2022/03/07 08:53:02;;;;;;;;;;;15.40;29.50;;;;;;5043777;28;42882;-77
2022/03/07 08:55:27;;;;;;;;;;;15.40;29.60;;;;;;5041618;28;44074;-77
2022/03/07 08:57:53;;;;;;;;;;;15.50;29.60;;;;;;5042877;28;42924;-77
2022/03/07 09:00:18;;;;;;;;;;;15.60;29.50;;;;;;5043336;28;43589;-78
2022/03/07 09:02:44;;;;;;;;;;;15.60;29.80;;;;;;5043132;28;42888;-77
2022/03/07 09:05:09;;;;;;;;;;;15.50;29.40;;;;;;5043131;28;43460;-78
2022/03/07 09:07:35;;;;;;;;;;;15.30;29.20;;;;;;5043100;28;42941;-77
2022/03/07 09:10:00;;;;;;;;;;;15.50;29.30;;;;;;5042730;28;43590;-77
2022/03/07 09:12:29;;;;;;;;;;;15.40;29.40;;;;;;5042909;28;43261;-77
2022/03/07 09:14:55;;;;;;;;;;;15.50;29.20;;;;;;5042774;28;43581;-77
2022/03/07 09:17:21;;;;;;;;;;;15.40;29.30;;;;;;5043062;28;42920;-77
2022/03/07 09:19:46;;;;;;;;;;;16.30;29.40;;;;;;5043131;28;43321;-77
2022/03/07 09:22:12;;;;;;;;;;;15.40;29.40;;;;;;5042992;28;42926;-76
2022/03/07 09:24:38;;;;;;;;;;;15.40;29.40;;;;;;5042528;28;43638;-77
2022/03/07 09:27:03;;;;;;;;;;;15.40;29.20;;;;;;5042897;28;43035;-75
2022/03/07 09:29:30;;;;;;;;;;;15.50;29.50;;;;;;5042974;28;43526;-77
2022/03/07 09:31:56;;;;;;;;;;;15.60;29.80;;;;;;5043373;28;42867;-78
2022/03/07 09:34:21;;;;;;;;;;;15.50;29.70;;;;;;5042521;28;43442;-78
2022/03/07 09:36:47;;;;;;;;;;;15.60;30.10;;;;;;5042207;28;42992;-77
2022/03/07 09:39:12;;;;;;;;;;;15.50;29.40;;;;;;5043613;28;42920;-77
2022/03/07 09:41:40;;;;;;;;;;;15.30;29.20;;;;;;5046532;28;42950;-77
2022/03/07 09:44:05;;;;;;;;;;;15.40;29.30;;;;;;5046487;28;44376;-77
2022/03/07 09:46:31;;;;;;;;;;;15.50;29.80;;;;;;5046080;28;42793;-77
2022/03/07 09:48:56;;;;;;;;;;;15.40;29.40;;;;;;5044298;28;44606;-77
2022/03/07 09:51:22;;;;;;;;;;;15.40;29.50;;;;;;5046167;28;43000;-78
2022/03/07 09:53:47;;;;;;;;;;;15.20;29.70;;;;;;5046307;28;43293;-77
2022/03/07 09:56:13;;;;;;;;;;;15.20;29.60;;;;;;5046255;28;43031;-77
2022/03/07 09:58:38;;;;;;;;;;;15.30;29.70;;;;;;5045895;28;43770;-77
2022/03/07 10:01:06;;;;;;;;;;;15.30;29.60;;;;;;5046077;28;43261;-78
2022/03/07 10:03:31;;;;;;;;;;;15.30;29.70;;;;;;5046040;28;43367;-77
2022/03/07 10:05:57;;;;;;;;;;;15.20;29.80;;;;;;5045995;28;42978;-77
2022/03/07 10:08:26;;;;;;;;;;;15.10;29.80;;;;;;5046113;28;43420;-77
2022/03/07 10:10:53;;;;;;;;;;;15.30;29.90;;;;;;5045928;28;43026;-78
2022/03/07 10:13:19;;;;;;;;;;;15.10;29.40;;;;;;5045428;28;42984;-76
2022/03/07 10:15:53;;;;;;;;;;;15.00;30.00;;;;;;5045625;28;43009;-77
2022/03/07 10:18:19;;;;;;;;;;;15.10;29.90;;;;;;5045777;28;43213;-78
2022/03/07 10:20:49;;;;;;;;;;;15.20;29.70;;;;;;5045926;28;42899;-77
2022/03/07 10:23:15;;;;;;;;;;;15.30;29.60;;;;;;5045412;28;43838;-77
2022/03/07 10:25:42;;;;;;;;;;;15.00;29.20;;;;;;5045488;28;43281;-78
2022/03/07 10:28:08;;;;;;;;;;;15.10;29.90;;;;;;5045544;28;43497;-78
2022/03/07 10:30:35;;;;;;;;;;;15.20;29.40;;;;;;5045775;28;42956;-78
2022/03/07 10:33:06;;;;;;;;;;;15.30;29.50;;;;;;5045805;28;43587;-78
2022/03/07 10:35:32;;;;;;;;;;;15.30;30.00;;;;;;5045759;28;42799;-77
2022/03/07 10:38:17;;;;;;;;;;;15.50;29.80;;;;;;5045350;28;43029;-77
2022/03/07 10:40:52;;;;;;;;;;;15.40;29.60;;;;;;5045302;28;42888;-77
2022/03/07 10:43:18;;;;;;;;;;;15.20;29.70;;;;;;5045547;28;43069;-77
2022/03/07 10:45:50;;;;;;;;;;;14.90;29.70;;;;;;5045078;28;43013;-78
2022/03/07 10:48:16;;;;;;;;;;;14.90;29.70;;;;;;5045471;28;43429;-78
2022/03/07 10:50:48;;;;;;;;;;;15.00;29.70;;;;;;5044940;28;43254;-78
2022/03/07 10:53:13;;;;;;;;;;;15.10;30.00;;;;;;5045015;28;43327;-78
2022/03/07 10:55:39;;;;;;;;;;;15.40;30.20;;;;;;5045796;28;42855;-77
2022/03/07 10:58:06;;;;;;;;;;;15.30;29.70;;;;;;5044757;28;43474;-77
2022/03/07 11:00:31;;;;;;;;;;;15.20;29.40;;;;;;5045022;28;42959;-77
2022/03/07 11:02:57;;;;;;;;;;;15.20;30.10;;;;;;5045181;28;43109;-78
2022/03/07 11:05:22;;;;;;;;;;;15.30;30.00;;;;;;5045719;28;42766;-78
2022/03/07 11:07:49;;;;;;;;;;;15.30;29.90;;;;;;5044176;28;42967;-78
2022/03/07 11:10:15;;;;;;;;;;;15.40;30.00;;;;;;5041735;28;42939;-78
2022/03/07 11:12:41;;;;;;;;;;;15.50;29.90;;;;;;5046166;28;42983;-77
2022/03/07 11:15:10;;;;;;;;;;;15.40;30.20;;;;;;5044807;28;43038;-76
2022/03/07 11:17:37;;;;;;;;;;;15.50;30.30;;;;;;5044479;28;43551;-78
2022/03/07 11:20:03;;;;;;;;;;;15.60;30.60;;;;;;5045015;28;42925;-77
2022/03/07 11:22:28;;;;;;;;;;;15.60;30.70;;;;;;5044336;28;44156;-76
2022/03/07 11:24:54;;;;;;;;;;;15.50;30.90;;;;;;5044618;28;42951;-76
2022/03/07 11:27:19;;;;;;;;;;;15.60;31.00;;;;;;5044171;28;43014;-77
2022/03/07 11:29:45;;;;;;;;;;;15.50;31.20;;;;;;5043505;28;43148;-75
2022/03/07 11:32:11;;;;;;;;;;;15.50;31.30;;;;;;5044044;28;42933;-77
2022/03/07 11:34:37;;;;;;;;;;;15.50;31.00;;;;;;5043404;28;43033;-76
2022/03/07 11:37:03;;;;;;;;;;;15.50;31.20;;;;;;5042899;28;43718;-79
2022/03/07 11:39:33;;;;;;;;;;;15.50;31.60;;;;;;5043204;28;42986;-75
2022/03/07 11:42:16;;;;;;;;;;;16.10;31.50;;;;;;5041027;28;44106;-75
2022/03/07 11:44:44;;;;;;;;;;;15.80;31.10;;;;;;5043035;28;42831;-75
2022/03/07 11:47:11;;;;;;;;;;;15.70;31.60;;;;;;5042691;28;43137;-76
2022/03/07 11:49:37;;;;;;;;;;;15.60;31.20;;;;;;5043418;28;43447;-75
2022/03/07 11:52:04;;;;;;;;;;;15.70;31.80;;;;;;5044253;28;42851;-76
2022/03/07 11:54:30;;;;;;;;;;;15.70;31.30;;;;;;5044531;28;43123;-77
2022/03/07 11:57:05;;;;;;;;;;;15.70;31.30;;;;;;5044131;28;43033;-76
2022/03/07 11:59:31;;;;;;;;;;;15.60;31.90;;;;;;5044034;28;42792;-75
2022/03/07 12:01:57;;;;;;;;;;;15.80;31.70;;;;;;5044227;28;43838;-77
2022/03/07 12:04:22;;;;;;;;;;;15.70;31.90;;;;;;5044395;28;43139;-76
2022/03/07 12:06:52;;;;;;;;;;;15.80;32.00;;;;;;5044293;28;42994;-77
2022/03/07 12:09:23;;;;;;;;;;;15.70;31.50;;;;;;5044125;28;42991;-76
2022/03/07 12:11:56;;;;;;;;;;;15.60;31.50;;;;;;5043248;28;43641;-76
2022/03/07 12:14:28;;;;;;;;;;;15.70;31.50;;;;;;5037585;28;43165;-78
2022/03/07 12:16:54;;;;;;;;;;;15.60;32.20;;;;;;5039074;28;45205;-75
2022/03/07 12:19:19;;;;;;;;;;;15.80;32.20;;;;;;5023852;28;42975;-76
2022/03/07 12:21:46;;;;;;;;;;;15.80;32.10;;;;;;5023719;28;42885;-76
2022/03/07 12:24:13;;;;;;;;;;;15.90;32.10;;;;;;5024054;28;42948;-76
2022/03/07 12:26:48;;;;;;;;;;;16.00;32.20;;;;;;5023846;28;42853;-77
2022/03/07 12:29:14;;;;;;;;;;;16.00;32.30;;;;;;5023249;28;42879;-76
2022/03/07 12:31:52;;;;;;;;;;;16.10;32.50;;;;;;5031279;28;43460;-76
2022/03/07 12:34:21;;;;;;;;;;;16.10;32.00;;;;;;5041815;28;43193;-75
2022/03/07 12:36:54;;;;;;;;;;;15.30;32.10;;;;;;5040018;28;44891;-80
2022/03/07 12:39:20;;;;;;;;;;;16.10;32.60;;;;;;5036748;28;43283;-75
2022/03/07 12:41:45;;;;;;;;;;;16.20;33.10;;;;;;5041976;28;43109;-75
2022/03/07 12:44:11;;;;;;;;;;;16.10;32.60;;;;;;5043557;28;43152;-76
2022/03/07 12:46:36;;;;;;;;;;;16.10;32.80;;;;;;5034018;28;42955;-75
2022/03/07 12:49:02;;;;;;;;;;;16.20;33.80;;;;;;5039341;28;42966;-75
2022/03/07 12:51:30;;;;;;;;;;;16.20;34.30;;;;;;5041677;28;44149;-75
2022/03/07 12:53:56;;;;;;;;;;;16.20;34.80;;;;;;5042443;28;43072;-75
2022/03/07 12:56:37;;;;;;;;;;;16.20;35.30;;;;;;5042784;28;42908;-76
2022/03/07 12:59:04;;;;;;;;;;;16.20;36.60;;;;;;5042396;28;43148;-75
2022/03/07 13:01:31;;;;;;;;;;;17.10;39.20;;;;;;5043351;28;43489;-75
2022/03/07 13:03:58;;;;;;;;;;;16.20;39.40;;;;;;5043148;28;43093;-78
2022/03/07 13:06:24;;;;;;;;;;;16.20;39.00;;;;;;5042446;28;43469;-76
2022/03/07 13:08:50;;;;;;;;;;;16.30;38.30;;;;;;5042111;28;43028;-76
2022/03/07 13:11:15;;;;;;;;;;;16.30;39.60;;;;;;5041677;28;43093;-78
2022/03/07 13:13:42;;;;;;;;;;;16.20;39.20;;;;;;5041028;28;43073;-77
2022/03/07 13:16:07;;;;;;;;;;;16.20;38.80;;;;;;5038454;28;44588;-77
2022/03/07 13:18:33;;;;;;;;;;;16.30;38.40;;;;;;5037301;28;42993;-77
2022/03/07 13:20:58;;;;;;;;;;;16.30;38.30;;;;;;5038502;28;43030;-75
2022/03/07 13:23:27;;;;;;;;;;;16.30;38.90;;;;;;5038775;28;43112;-75
2022/03/07 13:25:53;;;;;;;;;;;16.30;38.80;;;;;;5039717;28;43942;-76
2022/03/07 13:28:28;;;;;;;;;;;16.40;39.80;;;;;;5044200;28;43358;-75
2022/03/07 13:30:54;;;;;;;;;;;16.30;39.30;;;;;;5043947;28;43775;-76
2022/03/07 13:33:20;;;;;;;;;;;16.40;39.40;;;;;;5045526;28;43031;-75
2022/03/07 13:35:45;;;;;;;;;;;16.30;38.90;;;;;;5045669;28;43070;-74
2022/03/07 13:38:21;;;;;;;;;;;16.40;39.80;;;;;;5046388;28;42925;-77
2022/03/07 13:40:46;;;;;;;;;;;16.40;38.60;;;;;;5046449;28;43985;-82
2022/03/07 13:43:12;;;;;;;;;;;16.40;38.20;;;;;;5045919;28;43047;-83
2022/03/07 13:45:38;;;;;;;;;;;16.40;38.00;;;;;;5044773;28;44717;-76
2022/03/07 13:48:05;;;;;;;;;;;16.40;38.00;;;;;;5044065;28;43232;-78
2022/03/07 13:50:30;;;;;;;;;;;18.80;38.30;;;;;;5045041;28;42961;-81
2022/03/07 13:53:06;;;;;;;;;;;16.40;36.90;;;;;;5045112;28;43159;-80
2022/03/07 13:55:33;;;;;;;;;;;16.40;37.30;;;;;;5044461;28;43004;-83
2022/03/07 13:58:00;;;;;;;;;;;16.40;36.80;;;;;;5048636;28;43162;-79
2022/03/07 14:00:27;;;;;;;;;;;16.40;37.30;;;;;;5055977;28;42957;-79
2022/03/07 14:02:59;;;;;;;;;;;16.50;37.10;;;;;;5047666;28;43089;-78
2022/03/07 14:05:26;;;;;;;;;;;16.40;37.00;;;;;;5045221;28;43167;-83
2022/03/07 14:07:55;;;;;;;;;;;16.50;37.00;;;;;;5042623;28;42962;-77
2022/03/07 14:10:21;;;;;;;;;;;16.40;36.90;;;;;;5045079;28;42918;-83
2022/03/07 14:12:52;;;;;;;;;;;16.40;36.90;;;;;;5043018;28;42990;-79